Time;durP1;ratioP1;P1;durP2;ratioP2;P2;SDS_P1;SDS_P2;PMS_P1;PMS_P2;Temp;Humidity;BMP_temperature;BMP_pressure;BME280_temperature;BME280_humidity;BME280_pressure;Samples;Min_cycle;Max_cycle;Signal;HPM_P1;HPM_P2
2021/10/16 00:01:13;;;;;;;2.20;1.00;;;21.70;54.70;;;;;;4983140;28;20046;-58
2021/10/16 00:03:40;;;;;;;2.42;1.10;;;21.70;54.70;;;;;;4985018;28;20030;-54
2021/10/16 00:06:06;;;;;;;2.25;1.10;;;21.70;54.70;;;;;;4988927;28;20392;-50
2021/10/16 00:08:32;;;;;;;2.58;1.40;;;21.70;54.70;;;;;;4982504;28;20030;-57
2021/10/16 00:10:58;;;;;;;2.28;1.17;;;21.70;54.80;;;;;;4993436;28;20042;-55
2021/10/16 00:13:24;;;;;;;1.92;1.20;;;21.70;54.80;;;;;;4980369;28;20109;-58
2021/10/16 00:15:49;;;;;;;2.38;1.20;;;21.70;54.80;;;;;;4988990;28;20030;-56
2021/10/16 00:18:15;;;;;;;2.22;1.20;;;21.70;54.80;;;;;;4990460;28;20409;-54
2021/10/16 00:20:41;;;;;;;2.00;1.30;;;21.60;54.80;;;;;;4992004;28;20679;-52
2021/10/16 00:23:07;;;;;;;2.53;1.20;;;21.60;54.80;;;;;;4989423;28;20065;-55
2021/10/16 00:25:33;;;;;;;2.47;1.13;;;21.60;54.80;;;;;;4989297;28;20079;-57
2021/10/16 00:27:59;;;;;;;1.73;1.10;;;21.60;54.80;;;;;;4990358;28;20046;-57
2021/10/16 00:30:24;;;;;;;2.25;1.10;;;21.60;54.80;;;;;;4989158;28;20360;-56
2021/10/16 00:32:50;;;;;;;2.03;1.10;;;21.60;54.90;;;;;;4979411;28;20374;-54
2021/10/16 00:35:16;;;;;;;2.33;1.30;;;21.60;54.90;;;;;;4988416;28;20038;-57
2021/10/16 00:37:41;;;;;;;2.35;1.10;;;21.60;54.90;;;;;;4988883;28;20029;-56
2021/10/16 00:40:08;;;;;;;1.88;1.10;;;21.60;54.90;;;;;;4986180;28;20041;-55
2021/10/16 00:42:48;;;;;;;1.70;1.10;;;21.50;54.80;;;;;;4975335;28;20522;-53
2021/10/16 00:45:15;;;;;;;1.95;1.17;;;21.60;55.00;;;;;;4986162;28;20038;-56
2021/10/16 00:47:42;;;;;;;1.67;1.10;;;21.60;54.90;;;;;;4979736;28;20043;-53
2021/10/16 00:50:09;;;;;;;2.40;1.30;;;21.50;54.90;;;;;;4988159;28;20773;-57
2021/10/16 00:52:39;;;;;;;2.22;1.20;;;21.50;54.90;;;;;;4978948;28;20093;-56
2021/10/16 00:55:12;;;;;;;1.55;1.00;;;21.50;54.90;;;;;;4987799;28;20092;-50
2021/10/16 00:57:38;;;;;;;1.80;1.10;;;21.50;54.90;;;;;;4989447;28;20105;-56
2021/10/16 01:00:08;;;;;;;1.70;0.93;;;21.50;55.50;;;;;;4989045;28;20133;-51
2021/10/16 01:02:34;;;;;;;1.40;0.95;;;21.50;54.90;;;;;;4982673;28;20038;-56
2021/10/16 01:05:00;;;;;;;1.90;1.20;;;21.50;55.00;;;;;;4988698;28;20081;-57
2021/10/16 01:07:28;;;;;;;1.88;1.00;;;21.40;54.90;;;;;;4989308;28;20035;-57
2021/10/16 01:09:54;;;;;;;1.48;1.00;;;21.40;54.90;;;;;;4986234;28;20042;-49
2021/10/16 01:12:20;;;;;;;1.92;1.10;;;21.50;55.50;;;;;;4987675;28;20034;-54
2021/10/16 01:15:02;;;;;;;1.65;1.00;;;21.40;55.00;;;;;;4987875;28;20065;-53
2021/10/16 01:17:28;;;;;;;1.60;1.10;;;21.40;55.00;;;;;;4990197;28;20026;-57
2021/10/16 01:20:00;;;;;;;1.80;1.20;;;21.40;55.00;;;;;;4985980;28;20049;-54
2021/10/16 01:22:27;;;;;;;2.03;1.25;;;21.40;55.00;;;;;;4987245;28;20045;-57
2021/10/16 01:24:53;;;;;;;1.77;1.30;;;21.40;55.00;;;;;;4989202;28;20031;-54
2021/10/16 01:27:20;;;;;;;2.00;1.13;;;21.40;55.10;;;;;;4984666;28;20034;-54
2021/10/16 01:29:48;;;;;;;1.90;1.17;;;21.40;55.10;;;;;;4985852;28;20038;-58
2021/10/16 01:32:13;;;;;;;1.67;1.17;;;21.40;55.10;;;;;;4980396;28;20470;-56
2021/10/16 01:34:39;;;;;;;1.38;0.90;;;21.40;55.10;;;;;;4978738;28;20038;-55
2021/10/16 01:37:05;;;;;;;1.50;1.00;;;21.40;55.10;;;;;;4980570;28;20431;-55
2021/10/16 01:39:31;;;;;;;1.58;1.10;;;21.40;55.10;;;;;;4981475;28;20040;-55
2021/10/16 01:41:56;;;;;;;2.00;1.20;;;21.30;55.10;;;;;;4988380;28;20034;-57
2021/10/16 01:44:23;;;;;;;1.83;1.05;;;21.30;55.10;;;;;;4989441;28;20042;-54
2021/10/16 01:46:48;;;;;;;1.52;1.00;;;21.30;55.10;;;;;;4986589;28;20037;-52
2021/10/16 01:49:18;;;;;;;1.25;0.98;;;21.30;55.10;;;;;;4988166;28;20022;-56
2021/10/16 01:51:45;;;;;;;1.85;1.00;;;21.30;55.10;;;;;;4984692;28;20054;-52
2021/10/16 01:54:10;;;;;;;1.55;0.90;;;21.30;55.20;;;;;;4994851;28;20034;-55
2021/10/16 01:56:36;;;;;;;1.70;1.02;;;21.30;55.10;;;;;;4987092;28;20033;-56
2021/10/16 01:59:13;;;;;;;1.83;1.20;;;21.30;55.10;;;;;;4987802;28;20053;-55
2021/10/16 02:01:39;;;;;;;1.40;1.05;;;21.30;55.20;;;;;;4983690;28;20031;-57
2021/10/16 02:04:04;;;;;;;1.63;0.90;;;21.30;55.20;;;;;;4989099;28;20130;-58
2021/10/16 02:06:30;;;;;;;2.03;1.20;;;21.20;55.10;;;;;;4984871;28;20493;-58
2021/10/16 02:08:56;;;;;;;1.60;1.02;;;21.20;55.10;;;;;;4979267;28;20038;-54
2021/10/16 02:11:21;;;;;;;1.70;0.98;;;21.20;55.10;;;;;;4997034;28;20066;-55
2021/10/16 02:13:47;;;;;;;1.25;0.90;;;21.20;55.20;;;;;;4986946;28;20030;-53
2021/10/16 02:16:12;;;;;;;1.83;1.10;;;21.20;55.20;;;;;;4990138;28;20058;-54
2021/10/16 02:18:38;;;;;;;1.42;0.95;;;21.20;55.20;;;;;;4984965;28;20033;-58
2021/10/16 02:21:04;;;;;;;1.60;0.93;;;21.20;55.20;;;;;;4990003;28;20233;-55
2021/10/16 02:23:29;;;;;;;1.42;0.90;;;21.20;55.20;;;;;;4985276;28;20041;-52
2021/10/16 02:25:55;;;;;;;1.95;1.10;;;21.20;55.20;;;;;;4987799;28;20522;-57
2021/10/16 02:28:20;;;;;;;1.48;0.95;;;21.20;55.20;;;;;;4979008;28;20031;-49
2021/10/16 02:30:46;;;;;;;1.52;1.00;;;21.20;55.30;;;;;;4984658;28;20656;-50
2021/10/16 02:33:12;;;;;;;1.38;1.05;;;21.20;55.30;;;;;;4990847;28;20048;-54
2021/10/16 02:35:37;;;;;;;1.50;1.00;;;21.20;55.30;;;;;;4985260;28;20103;-54
2021/10/16 02:38:03;;;;;;;1.02;0.90;;;21.10;55.20;;;;;;4991185;28;20034;-55
2021/10/16 02:40:30;;;;;;;1.42;0.90;;;21.10;55.20;;;;;;4989671;28;20034;-53
2021/10/16 02:42:56;;;;;;;1.20;0.90;;;21.10;55.20;;;;;;4987595;28;20040;-56
2021/10/16 02:45:22;;;;;;;1.40;0.95;;;21.10;55.30;;;;;;4980308;28;20034;-57
2021/10/16 02:47:48;;;;;;;1.50;1.20;;;21.10;55.80;;;;;;4986291;28;20122;-57
2021/10/16 02:50:13;;;;;;;1.33;0.90;;;21.10;55.30;;;;;;4985887;28;20518;-47
2021/10/16 02:52:39;;;;;;;1.50;1.00;;;21.10;55.30;;;;;;4995623;28;20439;-50
2021/10/16 02:55:05;;;;;;;2.33;0.95;;;21.10;55.40;;;;;;4985532;28;20030;-58
2021/10/16 02:57:32;;;;;;;1.52;1.00;;;21.10;55.30;;;;;;4986539;28;20045;-51
2021/10/16 02:59:58;;;;;;;1.80;0.90;;;21.10;55.40;;;;;;4986612;28;20040;-54
2021/10/16 03:02:25;;;;;;;1.42;0.98;;;21.10;55.40;;;;;;4986955;28;20063;-57
2021/10/16 03:04:50;;;;;;;1.38;0.90;;;21.10;55.40;;;;;;4987704;28;20101;-56
2021/10/16 03:07:16;;;;;;;1.60;1.00;;;21.00;55.30;;;;;;4979215;28;20046;-52
2021/10/16 03:09:42;;;;;;;1.60;0.98;;;21.00;55.40;;;;;;4984950;28;20115;-57
2021/10/16 03:12:08;;;;;;;1.80;1.02;;;21.00;55.40;;;;;;4975994;28;20467;-58
2021/10/16 03:14:34;;;;;;;1.55;1.05;;;21.00;55.40;;;;;;4985370;28;20079;-54
2021/10/16 03:17:00;;;;;;;1.27;1.00;;;21.00;55.40;;;;;;4990419;28;20065;-55
2021/10/16 03:19:25;;;;;;;1.30;0.90;;;21.00;55.40;;;;;;4991324;28;20510;-56
2021/10/16 03:21:51;;;;;;;1.50;0.80;;;21.00;55.50;;;;;;4986250;28;20088;-56
2021/10/16 03:24:16;;;;;;;1.30;0.93;;;21.00;55.50;;;;;;4989784;28;20112;-57
2021/10/16 03:26:42;;;;;;;0.90;0.80;;;21.00;55.50;;;;;;4991826;28;20035;-57
2021/10/16 03:29:08;;;;;;;1.77;0.93;;;21.00;55.50;;;;;;4986524;28;20385;-55
2021/10/16 03:31:33;;;;;;;1.33;1.00;;;21.00;55.50;;;;;;4986294;28;20486;-57
2021/10/16 03:34:00;;;;;;;1.60;1.20;;;20.90;55.50;;;;;;4990529;28;20027;-52
2021/10/16 03:36:26;;;;;;;1.27;0.90;;;20.90;55.50;;;;;;4980007;28;20066;-54
2021/10/16 03:38:52;;;;;;;1.58;1.00;;;20.90;55.50;;;;;;4987990;28;20038;-57
2021/10/16 03:41:17;;;;;;;1.30;0.90;;;21.00;55.50;;;;;;4983707;28;20458;-56
2021/10/16 03:43:43;;;;;;;1.48;0.90;;;20.90;55.50;;;;;;4983780;28;20044;-52
2021/10/16 03:46:09;;;;;;;1.42;1.00;;;20.90;55.50;;;;;;4985220;28;20026;-58
2021/10/16 03:48:34;;;;;;;1.27;0.90;;;20.90;55.50;;;;;;4990335;28;20019;-58
2021/10/16 03:51:00;;;;;;;1.30;0.90;;;20.90;56.00;;;;;;4987234;28;20129;-52
2021/10/16 03:53:25;;;;;;;1.00;0.90;;;20.90;55.50;;;;;;4986708;28;20038;-55
2021/10/16 03:55:52;;;;;;;1.13;0.88;;;20.90;55.50;;;;;;4987846;28;20069;-50
2021/10/16 03:58:18;;;;;;;1.77;0.90;;;20.90;55.50;;;;;;4991026;28;20078;-58
2021/10/16 04:00:43;;;;;;;1.45;1.00;;;20.90;55.60;;;;;;4984535;28;20038;-57
2021/10/16 04:03:09;;;;;;;1.20;0.90;;;20.90;55.60;;;;;;4990584;28;20085;-52
2021/10/16 04:05:35;;;;;;;1.23;0.80;;;20.90;55.60;;;;;;4987986;28;20050;-55
2021/10/16 04:08:00;;;;;;;1.90;1.00;;;20.90;55.60;;;;;;4989519;28;20030;-55
2021/10/16 04:10:26;;;;;;;1.30;0.90;;;20.90;55.60;;;;;;4988081;28;20038;-57
2021/10/16 04:12:52;;;;;;;1.40;1.00;;;20.90;55.60;;;;;;4989761;28;20121;-55
2021/10/16 04:15:17;;;;;;;1.33;0.90;;;20.90;55.60;;;;;;4990288;28;20033;-56
2021/10/16 04:17:45;;;;;;;1.70;1.10;;;20.90;55.60;;;;;;4989782;28;20057;-57
2021/10/16 04:20:12;;;;;;;1.85;0.90;;;20.90;55.60;;;;;;4986550;28;20034;-56
2021/10/16 04:22:39;;;;;;;1.65;1.10;;;20.90;55.60;;;;;;4988285;28;20408;-57
2021/10/16 04:25:05;;;;;;;1.42;0.90;;;20.80;55.60;;;;;;4989060;28;20113;-58
2021/10/16 04:27:31;;;;;;;1.55;1.00;;;20.90;55.60;;;;;;4995961;28;20049;-55
2021/10/16 04:29:57;;;;;;;1.45;0.88;;;20.80;55.60;;;;;;4994240;28;20106;-51
2021/10/16 04:32:22;;;;;;;1.13;0.90;;;20.80;55.60;;;;;;4976765;28;20061;-56
2021/10/16 04:34:48;;;;;;;1.38;1.00;;;20.90;55.60;;;;;;4976917;28;20035;-57
2021/10/16 04:37:15;;;;;;;1.60;1.10;;;20.90;55.60;;;;;;4977692;28;20034;-57
2021/10/16 04:39:41;;;;;;;1.20;0.90;;;20.80;55.60;;;;;;4985440;28;20031;-53
2021/10/16 04:42:06;;;;;;;1.55;0.90;;;20.80;55.60;;;;;;4989874;28;20042;-55
2021/10/16 04:44:34;;;;;;;0.80;0.77;;;20.80;55.60;;;;;;4988896;28;20379;-54
2021/10/16 04:47:00;;;;;;;1.45;1.00;;;20.80;55.60;;;;;;4995359;28;20053;-56
2021/10/16 04:49:25;;;;;;;1.35;0.90;;;20.80;55.60;;;;;;4992613;28;22468;-54
2021/10/16 04:51:51;;;;;;;2.05;1.08;;;20.80;55.60;;;;;;4982948;28;20034;-55
2021/10/16 04:54:16;;;;;;;1.48;0.90;;;20.80;55.60;;;;;;4989123;28;20379;-54
2021/10/16 04:56:42;;;;;;;1.50;0.90;;;20.80;55.60;;;;;;4993666;28;20447;-56
2021/10/16 04:59:08;;;;;;;1.38;1.02;;;20.80;55.60;;;;;;4987993;28;20159;-55
2021/10/16 05:01:33;;;;;;;1.50;0.93;;;20.80;55.60;;;;;;4985257;28;20396;-54
2021/10/16 05:03:59;;;;;;;1.20;0.88;;;20.80;55.60;;;;;;4989189;28;20030;-56
2021/10/16 05:06:24;;;;;;;1.50;0.90;;;20.80;55.60;;;;;;4984502;28;20026;-52
2021/10/16 05:08:50;;;;;;;1.35;0.90;;;20.80;55.60;;;;;;4988094;28;20034;-57
2021/10/16 05:11:16;;;;;;;1.35;0.85;;;20.80;55.60;;;;;;4990175;28;20046;-53
2021/10/16 05:13:41;;;;;;;1.40;0.90;;;20.80;55.60;;;;;;4988594;28;20370;-52
2021/10/16 05:16:07;;;;;;;1.23;0.90;;;20.80;55.60;;;;;;4988609;28;20022;-57
2021/10/16 05:18:32;;;;;;;1.52;0.90;;;20.80;55.60;;;;;;4991089;28;20072;-56
2021/10/16 05:20:58;;;;;;;1.35;0.90;;;20.80;55.60;;;;;;4986314;28;20784;-58
2021/10/16 05:23:24;;;;;;;1.20;0.80;;;20.80;55.50;;;;;;4983173;28;20058;-58
2021/10/16 05:25:51;;;;;;;1.45;0.90;;;20.70;55.40;;;;;;4985099;28;20122;-56
2021/10/16 05:28:17;;;;;;;1.38;0.90;;;20.80;55.40;;;;;;4993419;28;20110;-57
2021/10/16 05:30:43;;;;;;;1.77;1.10;;;20.80;55.40;;;;;;4990123;28;20182;-55
2021/10/16 05:33:08;;;;;;;0.90;0.80;;;20.80;55.40;;;;;;4982793;28;20986;-55
2021/10/16 05:35:34;;;;;;;1.77;1.10;;;20.80;55.30;;;;;;4982152;28;20039;-55
2021/10/16 05:38:00;;;;;;;1.30;1.00;;;20.70;55.30;;;;;;4985998;28;20033;-52
2021/10/16 05:40:25;;;;;;;1.88;1.00;;;20.70;55.20;;;;;;4983056;28;20106;-57
2021/10/16 05:42:51;;;;;;;1.77;1.05;;;20.70;55.20;;;;;;4985904;28;20053;-54
2021/10/16 05:45:17;;;;;;;1.88;1.20;;;20.70;55.20;;;;;;4987872;28;20101;-56
2021/10/16 05:47:42;;;;;;;1.63;1.10;;;20.70;55.20;;;;;;4988242;28;20042;-52
2021/10/16 05:50:09;;;;;;;1.52;1.00;;;20.70;55.20;;;;;;4980903;28;20061;-58
2021/10/16 05:52:35;;;;;;;1.65;1.00;;;20.70;55.20;;;;;;4994338;28;20056;-49
2021/10/16 05:55:05;;;;;;;1.50;0.90;;;20.70;55.20;;;;;;4991089;28;20037;-56
2021/10/16 05:57:30;;;;;;;1.83;1.10;;;20.70;55.20;;;;;;4989569;28;20050;-54
2021/10/16 05:59:56;;;;;;;1.42;1.02;;;20.70;55.20;;;;;;4987586;28;20049;-51
2021/10/16 06:02:21;;;;;;;2.13;1.10;;;20.70;55.20;;;;;;4988728;28;20124;-57
2021/10/16 06:04:47;;;;;;;1.10;0.98;;;20.70;55.20;;;;;;4990394;28;20418;-58
2021/10/16 06:07:13;;;;;;;1.20;0.88;;;20.70;55.20;;;;;;4986284;28;20080;-54
2021/10/16 06:09:38;;;;;;;1.52;1.00;;;20.70;55.20;;;;;;4994251;28;20545;-57
2021/10/16 06:12:04;;;;;;;2.25;1.10;;;20.70;55.20;;;;;;4993393;28;20024;-55
2021/10/16 06:14:30;;;;;;;1.63;1.08;;;20.70;55.20;;;;;;4985137;28;20497;-51
2021/10/16 06:16:55;;;;;;;3.08;1.17;;;20.70;55.20;;;;;;4992010;28;20038;-58
2021/10/16 06:19:21;;;;;;;1.80;1.10;;;20.70;55.20;;;;;;4987772;28;20066;-55
2021/10/16 06:21:46;;;;;;;1.48;1.00;;;20.70;55.20;;;;;;4991110;28;20027;-49
2021/10/16 06:24:12;;;;;;;1.33;1.02;;;20.70;55.20;;;;;;4995715;28;20192;-52
2021/10/16 06:26:38;;;;;;;1.50;0.90;;;20.70;55.20;;;;;;4987354;28;20064;-54
2021/10/16 06:29:04;;;;;;;1.98;1.10;;;20.70;55.20;;;;;;4985656;28;20062;-50
2021/10/16 06:31:29;;;;;;;2.05;1.13;;;20.70;55.20;;;;;;4984981;28;20041;-55
2021/10/16 06:33:55;;;;;;;2.00;1.10;;;20.70;55.20;;;;;;4984684;28;20026;-57
2021/10/16 06:36:20;;;;;;;1.63;1.08;;;20.70;55.20;;;;;;4983345;28;20094;-54
2021/10/16 06:38:46;;;;;;;2.28;1.20;;;20.70;55.20;;;;;;4991547;28;20034;-54
2021/10/16 06:41:12;;;;;;;1.90;1.20;;;20.70;55.20;;;;;;4992600;28;20093;-56
2021/10/16 06:43:37;;;;;;;1.58;1.00;;;20.70;55.20;;;;;;5000654;28;20520;-51
2021/10/16 06:46:03;;;;;;;2.38;1.25;;;20.70;55.20;;;;;;4990031;28;20027;-48
2021/10/16 06:48:28;;;;;;;2.00;1.00;;;20.70;55.20;;;;;;4987582;28;20090;-53
2021/10/16 06:50:54;;;;;;;1.95;1.08;;;20.70;55.20;;;;;;4988866;28;20053;-54
2021/10/16 06:53:20;;;;;;;2.63;1.00;;;20.70;55.20;;;;;;4986158;28;20033;-54
2021/10/16 06:55:45;;;;;;;3.75;1.35;;;20.60;55.20;;;;;;4981630;28;20054;-53
2021/10/16 06:58:11;;;;;;;1.50;1.00;;;20.70;55.20;;;;;;4989787;28;20026;-57
2021/10/16 07:00:37;;;;;;;1.90;1.10;;;20.70;55.20;;;;;;4987284;28;20034;-58
2021/10/16 07:03:03;;;;;;;1.85;1.13;;;20.70;55.20;;;;;;4994422;28;20027;-46
2021/10/16 07:05:29;;;;;;;1.35;0.90;;;20.60;55.20;;;;;;4998160;28;20117;-56
2021/10/16 07:07:55;;;;;;;1.42;1.20;;;20.60;55.20;;;;;;4990480;28;20407;-53
2021/10/16 07:10:20;;;;;;;2.10;1.15;;;20.60;55.20;;;;;;4992586;28;20030;-55
2021/10/16 07:12:46;;;;;;;1.33;1.00;;;20.60;55.20;;;;;;4980718;28;20394;-48
2021/10/16 07:15:12;;;;;;;3.13;1.42;;;20.60;55.20;;;;;;4983336;28;20030;-53
2021/10/16 07:17:37;;;;;;;1.75;1.10;;;20.60;55.20;;;;;;4991148;28;20036;-54
2021/10/16 07:20:05;;;;;;;1.75;1.17;;;20.60;55.20;;;;;;4995845;28;20049;-49
2021/10/16 07:22:30;;;;;;;1.58;1.10;;;20.60;55.20;;;;;;4978627;28;20026;-53
2021/10/16 07:24:56;;;;;;;1.73;1.20;;;20.60;55.20;;;;;;4988715;28;20124;-49
2021/10/16 07:27:22;;;;;;;1.65;1.00;;;20.60;55.20;;;;;;4987219;28;20982;-47
2021/10/16 07:29:48;;;;;;;1.90;1.27;;;20.60;55.20;;;;;;4986612;28;20070;-56
2021/10/16 07:32:15;;;;;;;2.70;1.08;;;20.60;55.20;;;;;;4986942;28;20041;-51
2021/10/16 07:34:41;;;;;;;2.05;1.02;;;20.60;55.20;;;;;;4986906;28;20034;-55
2021/10/16 07:37:07;;;;;;;1.80;1.10;;;20.60;55.20;;;;;;4976467;28;20022;-54
2021/10/16 07:39:33;;;;;;;2.03;1.20;;;20.60;55.20;;;;;;4977821;28;20391;-50
2021/10/16 07:41:59;;;;;;;1.52;1.00;;;20.60;55.20;;;;;;4980962;28;20041;-48
2021/10/16 07:44:24;;;;;;;1.50;1.05;;;20.60;55.20;;;;;;4985791;28;20043;-49
2021/10/16 07:46:50;;;;;;;1.80;1.08;;;20.60;55.20;;;;;;4982211;28;20065;-49
2021/10/16 07:49:16;;;;;;;1.83;1.00;;;20.60;55.20;;;;;;4986227;28;20038;-48
2021/10/16 07:51:41;;;;;;;2.00;1.17;;;20.60;55.20;;;;;;4978295;28;20038;-45
2021/10/16 07:54:07;;;;;;;2.38;1.20;;;20.60;55.20;;;;;;4989729;28;20149;-49
2021/10/16 07:56:33;;;;;;;2.20;1.10;;;20.60;55.20;;;;;;4987400;28;20077;-55
2021/10/16 07:58:59;;;;;;;2.03;1.17;;;20.60;55.20;;;;;;4982866;28;20142;-52
2021/10/16 08:01:24;;;;;;;1.60;1.10;;;20.60;55.20;;;;;;4978137;28;20042;-56
2021/10/16 08:03:52;;;;;;;2.10;1.23;;;20.60;55.10;;;;;;4984676;28;20030;-56
2021/10/16 08:06:18;;;;;;;2.20;1.35;;;20.60;55.10;;;;;;4987133;28;20038;-44
2021/10/16 08:08:44;;;;;;;2.05;1.17;;;20.60;55.10;;;;;;4987463;28;20071;-53
2021/10/16 08:11:09;;;;;;;2.30;1.30;;;20.60;55.10;;;;;;4994447;28;20034;-47
2021/10/16 08:13:35;;;;;;;2.88;1.40;;;20.60;55.20;;;;;;4989136;28;20073;-53
2021/10/16 08:16:01;;;;;;;2.45;1.13;;;20.60;55.20;;;;;;4994696;28;20444;-53
2021/10/16 08:18:26;;;;;;;1.98;1.25;;;20.60;55.10;;;;;;4993310;28;20030;-45
2021/10/16 08:20:52;;;;;;;2.35;1.20;;;20.60;55.20;;;;;;4987413;28;20084;-53
2021/10/16 08:23:18;;;;;;;1.90;1.17;;;20.60;55.10;;;;;;4994873;28;20109;-45
2021/10/16 08:25:44;;;;;;;1.95;1.13;;;20.60;55.10;;;;;;4995281;28;20461;-57
2021/10/16 08:28:11;;;;;;;1.88;1.20;;;20.60;55.10;;;;;;4989132;28;20034;-47
2021/10/16 08:30:39;;;;;;;2.70;1.45;;;20.60;55.10;;;;;;4997954;28;20509;-55
2021/10/16 08:33:05;;;;;;;1.90;1.23;;;20.60;55.20;;;;;;4998210;28;20052;-45
2021/10/16 08:35:31;;;;;;;1.67;1.10;;;20.60;55.20;;;;;;4996337;28;20030;-52
2021/10/16 08:37:57;;;;;;;1.98;1.10;;;20.60;55.20;;;;;;4976466;28;20121;-48
2021/10/16 08:40:25;;;;;;;2.00;1.20;;;20.60;55.20;;;;;;4976594;28;20122;-49
2021/10/16 08:42:51;;;;;;;2.42;1.30;;;20.60;55.10;;;;;;4990179;28;20129;-50
2021/10/16 08:45:16;;;;;;;1.75;1.20;;;20.60;55.10;;;;;;4978731;28;20117;-55
2021/10/16 08:47:42;;;;;;;1.67;1.15;;;20.60;55.10;;;;;;4981612;28;20751;-46
2021/10/16 08:50:09;;;;;;;2.67;1.30;;;20.60;55.20;;;;;;4979543;28;20121;-47
2021/10/16 08:52:36;;;;;;;2.35;1.50;;;20.60;55.20;;;;;;4997479;28;20037;-58
2021/10/16 08:55:03;;;;;;;2.80;1.50;;;20.60;55.20;;;;;;4997505;28;20546;-54
2021/10/16 08:57:38;;;;;;;2.03;1.33;;;20.60;55.20;;;;;;4997088;28;20026;-51
2021/10/16 09:00:41;;;;;;;2.55;1.30;;;20.60;55.20;;;;;;4991308;28;20030;-45
2021/10/16 09:03:30;;;;;;;2.08;1.30;;;20.60;55.20;;;;;;4984119;28;20046;-58
2021/10/16 09:06:06;;;;;;;3.30;1.50;;;20.50;55.20;;;;;;4988092;28;20043;-56
2021/10/16 09:08:53;;;;;;;3.05;1.40;;;20.60;55.20;;;;;;4979995;28;20038;-54
2021/10/16 09:11:29;;;;;;;3.15;1.30;;;20.60;55.20;;;;;;4978745;28;20034;-46
2021/10/16 09:14:17;;;;;;;2.38;1.35;;;20.50;55.20;;;;;;4985751;28;20030;-52
2021/10/16 09:16:47;;;;;;;2.73;1.43;;;20.50;55.20;;;;;;4986268;28;20062;-55
2021/10/16 09:19:20;;;;;;;2.35;1.20;;;20.60;55.20;;;;;;4993817;28;20824;-55
2021/10/16 09:22:03;;;;;;;2.25;1.40;;;20.50;55.20;;;;;;4982100;28;20049;-54
2021/10/16 09:24:30;;;;;;;5.38;1.63;;;20.50;55.20;;;;;;4984090;28;20023;-56
2021/10/16 09:27:03;;;;;;;2.95;1.50;;;20.50;55.20;;;;;;4987703;28;20413;-53
2021/10/16 09:29:34;;;;;;;2.65;1.50;;;20.50;55.20;;;;;;4986979;28;20454;-55
2021/10/16 09:32:01;;;;;;;2.22;1.38;;;20.50;55.20;;;;;;4985608;28;20034;-46
2021/10/16 09:34:34;;;;;;;2.75;1.50;;;20.50;55.20;;;;;;4981034;28;20173;-57
2021/10/16 09:37:05;;;;;;;1.88;1.20;;;20.50;55.20;;;;;;4986635;28;20109;-53
2021/10/16 09:39:32;;;;;;;3.45;1.40;;;20.50;55.20;;;;;;4986678;28;20045;-51
2021/10/16 09:41:58;;;;;;;4.10;1.48;;;20.60;55.20;;;;;;4981900;28;20145;-51
2021/10/16 09:44:31;;;;;;;2.40;1.40;;;20.50;55.20;;;;;;4990322;28;20112;-44
2021/10/16 09:47:03;;;;;;;2.05;1.38;;;20.50;55.10;;;;;;4987231;28;20104;-48
2021/10/16 09:49:32;;;;;;;2.45;1.30;;;20.50;55.10;;;;;;4988225;28;20592;-53
2021/10/16 09:51:59;;;;;;;2.90;1.67;;;20.50;55.10;;;;;;4987209;28;20100;-53
2021/10/16 09:54:25;;;;;;;2.22;1.35;;;20.50;55.10;;;;;;4984971;28;20069;-57
2021/10/16 09:56:50;;;;;;;2.55;1.50;;;20.60;55.10;;;;;;4985313;28;20081;-48
2021/10/16 09:59:19;;;;;;;2.25;1.30;;;20.50;55.10;;;;;;4992868;28;20527;-51
2021/10/16 10:01:45;;;;;;;2.08;1.30;;;20.50;55.10;;;;;;4977301;28;20035;-50
2021/10/16 10:04:11;;;;;;;2.97;1.40;;;20.50;55.10;;;;;;4990020;28;20045;-53
2021/10/16 10:06:39;;;;;;;2.50;1.38;;;20.60;55.10;;;;;;4988265;28;20105;-54
2021/10/16 10:09:06;;;;;;;2.35;1.40;;;20.50;55.10;;;;;;4986614;28;20450;-57
2021/10/16 10:11:33;;;;;;;2.03;1.30;;;20.60;55.10;;;;;;4986490;28;20026;-51
2021/10/16 10:13:59;;;;;;;2.70;1.30;;;20.50;55.10;;;;;;4983497;28;20045;-45
2021/10/16 10:16:26;;;;;;;2.40;1.40;;;20.60;55.10;;;;;;4985143;28;20034;-58
2021/10/16 10:19:00;;;;;;;2.40;1.52;;;20.50;55.10;;;;;;4983559;28;20026;-58
2021/10/16 10:21:34;;;;;;;2.30;1.30;;;20.60;55.10;;;;;;4989443;28;20065;-55
2021/10/16 10:24:02;;;;;;;2.70;1.30;;;20.50;55.10;;;;;;4987193;28;20092;-56
2021/10/16 10:26:31;;;;;;;1.70;1.30;;;20.60;55.10;;;;;;4979579;28;20026;-54
2021/10/16 10:29:20;;;;;;;2.28;1.38;;;20.60;55.10;;;;;;4983272;28;20128;-54
2021/10/16 10:31:49;;;;;;;3.88;1.40;;;20.60;55.10;;;;;;4987209;28;20088;-58
2021/10/16 10:34:16;;;;;;;2.67;1.50;;;20.60;55.20;;;;;;4983868;28;20034;-53
2021/10/16 10:36:47;;;;;;;2.70;1.52;;;20.60;55.20;;;;;;4985536;28;20524;-51
2021/10/16 10:39:34;;;;;;;2.72;1.60;;;20.50;55.20;;;;;;4984099;28;20026;-48
2021/10/16 10:42:12;;;;;;;4.70;1.50;;;20.60;55.30;;;;;;4980266;28;20033;-55
2021/10/16 10:44:42;;;;;;;2.95;1.40;;;20.60;55.30;;;;;;4972592;28;20030;-48
2021/10/16 10:47:34;;;;;;;2.22;1.60;;;20.60;55.30;;;;;;4979001;28;20081;-54
2021/10/16 10:50:10;;;;;;;3.25;1.50;;;20.60;55.40;;;;;;4974373;28;20034;-53
2021/10/16 10:53:01;;;;;;;3.20;1.60;;;20.60;55.30;;;;;;4972814;28;20041;-58
2021/10/16 10:55:26;;;;;;;3.58;1.55;;;20.60;55.40;;;;;;4977596;28;20180;-52
2021/10/16 10:57:58;;;;;;;3.80;1.70;;;20.60;55.30;;;;;;4977018;28;20459;-47
2021/10/16 11:00:34;;;;;;;2.33;1.65;;;20.60;55.40;;;;;;4977813;28;20033;-50
2021/10/16 11:03:00;;;;;;;2.00;1.50;;;20.60;55.50;;;;;;4977738;28;20792;-53
2021/10/16 11:05:35;;;;;;;2.85;1.70;;;20.60;55.50;;;;;;4976257;28;20126;-46
2021/10/16 11:08:07;;;;;;;2.35;1.50;;;20.60;55.50;;;;;;4974692;28;20038;-54
2021/10/16 11:10:33;;;;;;;2.80;1.60;;;20.60;55.50;;;;;;4973652;28;20034;-56
2021/10/16 11:13:09;;;;;;;2.97;1.63;;;20.60;55.60;;;;;;4971396;28;20042;-53
2021/10/16 11:15:36;;;;;;;2.17;1.50;;;20.60;55.50;;;;;;4981668;28;20026;-52
2021/10/16 11:18:12;;;;;;;2.95;1.65;;;20.60;55.50;;;;;;4977217;28;20042;-59
2021/10/16 11:20:37;;;;;;;2.65;1.80;;;20.60;55.50;;;;;;4974236;28;20072;-56
2021/10/16 11:23:04;;;;;;;3.08;1.80;;;20.60;55.50;;;;;;4977405;28;20033;-51
2021/10/16 11:25:31;;;;;;;3.30;1.77;;;20.60;55.50;;;;;;4977879;28;20034;-57
2021/10/16 11:28:12;;;;;;;4.03;1.73;;;20.60;55.50;;;;;;4977625;28;20049;-54
2021/10/16 11:30:41;;;;;;;3.28;1.92;;;20.60;55.50;;;;;;4974983;28;20046;-58
2021/10/16 11:33:19;;;;;;;2.55;1.77;;;20.60;55.50;;;;;;4982244;28;20069;-61
2021/10/16 11:35:47;;;;;;;3.33;1.80;;;20.60;55.50;;;;;;4984422;28;20026;-58
2021/10/16 11:38:15;;;;;;;2.60;1.55;;;20.60;55.90;;;;;;4985095;28;20112;-57
2021/10/16 11:40:42;;;;;;;3.47;1.63;;;20.60;56.20;;;;;;4980877;28;20055;-54
2021/10/16 11:43:22;;;;;;;2.92;1.80;;;20.70;56.50;;;;;;4992600;28;20060;-56
2021/10/16 11:45:51;;;;;;;2.80;1.70;;;20.70;56.50;;;;;;4993197;28;20522;-54
2021/10/16 11:48:19;;;;;;;3.15;1.58;;;20.70;56.30;;;;;;4987213;28;20124;-57
2021/10/16 11:50:50;;;;;;;3.17;1.80;;;20.80;56.30;;;;;;4975721;28;20088;-61
2021/10/16 11:53:21;;;;;;;3.88;1.75;;;20.80;56.40;;;;;;4980410;28;20102;-54
2021/10/16 11:55:56;;;;;;;3.00;1.77;;;20.90;56.50;;;;;;4986199;28;20093;-56
2021/10/16 11:58:24;;;;;;;2.92;1.75;;;20.90;56.40;;;;;;4991218;28;20200;-59
2021/10/16 12:00:54;;;;;;;2.97;1.50;;;21.00;56.30;;;;;;4999446;28;20643;-53
2021/10/16 12:03:24;;;;;;;2.70;1.58;;;21.00;56.40;;;;;;4993669;28;20105;-56
2021/10/16 12:05:53;;;;;;;3.20;1.77;;;21.10;56.50;;;;;;4992826;28;20413;-59
2021/10/16 12:08:21;;;;;;;4.85;1.80;;;21.10;56.40;;;;;;4984106;28;20051;-59
2021/10/16 12:10:52;;;;;;;3.75;1.90;;;21.20;56.40;;;;;;4994116;28;20057;-61
2021/10/16 12:13:39;;;;;;;3.83;1.90;;;21.20;56.30;;;;;;4992182;28;20103;-58
2021/10/16 12:16:16;;;;;;;4.10;2.30;;;21.30;56.20;;;;;;4991092;28;20754;-47
2021/10/16 12:19:00;;;;;;;5.30;2.22;;;21.30;56.20;;;;;;4990604;28;20057;-59
2021/10/16 12:21:35;;;;;;;3.80;1.90;;;21.40;56.10;;;;;;4999204;28;20122;-50
2021/10/16 12:24:09;;;;;;;3.47;2.20;;;21.40;56.00;;;;;;4997778;28;20784;-48
2021/10/16 12:26:36;;;;;;;3.83;1.90;;;21.50;55.90;;;;;;4996380;28;20040;-54
2021/10/16 12:29:11;;;;;;;5.45;2.00;;;21.50;55.90;;;;;;4991423;28;20053;-54
2021/10/16 12:31:49;;;;;;;3.30;1.70;;;21.50;55.80;;;;;;4992116;28;20042;-60
2021/10/16 12:34:23;;;;;;;2.53;1.50;;;21.50;55.70;;;;;;4987232;28;20117;-48
2021/10/16 12:37:02;;;;;;;3.47;1.55;;;21.60;55.60;;;;;;4982565;28;20027;-50
2021/10/16 12:39:43;;;;;;;3.42;1.88;;;21.60;55.50;;;;;;4982590;28;20038;-52
2021/10/16 12:42:15;;;;;;;3.90;2.00;;;21.60;55.40;;;;;;5003436;28;20057;-49
2021/10/16 12:44:44;;;;;;;4.32;2.00;;;21.70;55.60;;;;;;4985799;28;20526;-58
2021/10/16 12:47:30;;;;;;;4.40;2.20;;;21.70;55.30;;;;;;4986038;28;20030;-53
2021/10/16 12:49:56;;;;;;;3.35;1.80;;;21.70;55.30;;;;;;4988541;28;20038;-52
2021/10/16 12:52:37;;;;;;;3.22;1.90;;;21.70;55.20;;;;;;4982004;28;20156;-52